Time;durP1;ratioP1;P1;durP2;ratioP2;P2;SDS_P1;SDS_P2;PMS_P1;PMS_P2;Temp;Humidity;BMP_temperature;BMP_pressure;BME280_temperature;BME280_humidity;BME280_pressure;Samples;Min_cycle;Max_cycle;Signal;HPM_P1;HPM_P2
2021/01/09 15:43:50;;;;;;;1999.90;999.90;;;-1.30;99.90;;;;;;5137961;27;20322;-46
2021/01/09 15:46:16;;;;;;;1999.90;999.90;;;-1.30;99.90;;;;;;5119198;28;20904;-47
2021/01/09 15:48:41;;;;;;;1999.90;999.90;;;-1.30;99.90;;;;;;5120399;28;20187;-47
2021/01/09 15:51:07;;;;;;;1999.90;999.90;;;-1.20;99.90;;;;;;5120105;28;20218;-46
2021/01/09 15:53:33;;;;;;;1999.90;999.90;;;-1.20;99.90;;;;;;5126890;27;20264;-47
2021/01/09 15:56:06;;;;;;;1999.90;999.90;;;-1.20;99.90;;;;;;5127114;27;20205;-48
2021/01/09 15:58:32;;;;;;;1999.90;999.90;;;-1.20;99.90;;;;;;5110130;28;20265;-47
2021/01/09 16:00:58;;;;;;;1999.90;999.90;;;-1.20;99.90;;;;;;5126924;27;20508;-47
2021/01/09 16:03:26;;;;;;;1999.90;999.90;;;-1.10;99.90;;;;;;5117513;28;20489;-46
2021/01/09 16:05:51;;;;;;;1999.90;999.90;;;-1.10;99.90;;;;;;5106843;28;20421;-47
2021/01/09 16:08:17;;;;;;;1999.90;999.90;;;-1.20;99.90;;;;;;5115424;28;20428;-47
2021/01/09 16:10:43;;;;;;;1999.90;999.90;;;-1.20;99.90;;;;;;5125443;28;20213;-47
2021/01/09 16:13:08;;;;;;;1999.90;999.90;;;-1.10;99.90;;;;;;5124895;27;20175;-47
2021/01/09 16:15:34;;;;;;;1999.90;999.90;;;-1.10;99.90;;;;;;5124238;28;20505;-47
2021/01/09 16:18:00;;;;;;;1999.90;999.90;;;-1.00;99.90;;;;;;5126466;28;20311;-47
2021/01/09 16:20:25;;;;;;;1999.90;999.90;;;-1.00;99.90;;;;;;5126646;28;20183;-47
2021/01/09 16:22:51;;;;;;;1999.90;999.90;;;-1.10;99.90;;;;;;5126625;28;20203;-47
2021/01/09 16:25:17;;;;;;;1999.90;999.90;;;-1.10;99.90;;;;;;5123822;28;21060;-47
2021/01/09 16:27:42;;;;;;;1999.90;999.90;;;-1.10;99.90;;;;;;5125211;27;20171;-47
2021/01/09 16:30:08;;;;;;;1999.90;999.90;;;-1.00;99.90;;;;;;5125208;27;20225;-47
2021/01/09 16:32:37;;;;;;;1999.90;999.90;;;-1.00;99.90;;;;;;5124583;27;20190;-47
2021/01/09 16:35:04;;;;;;;1999.90;999.90;;;-1.10;99.90;;;;;;5124174;27;20445;-47
2021/01/09 16:37:31;;;;;;;1999.90;999.90;;;-1.10;99.90;;;;;;5124545;27;20431;-47
2021/01/09 16:39:58;;;;;;;1999.90;999.90;;;-1.10;99.90;;;;;;5123217;28;20433;-47
2021/01/09 16:42:23;;;;;;;1999.90;999.90;;;-1.10;99.90;;;;;;5124170;27;20479;-47
2021/01/09 16:44:49;;;;;;;1999.90;999.90;;;-1.00;99.90;;;;;;5124242;28;20426;-47
2021/01/09 16:47:15;;;;;;;1999.90;999.90;;;-1.00;99.90;;;;;;5125002;28;20276;-47
2021/01/09 16:49:40;;;;;;;1999.90;999.90;;;-1.00;99.90;;;;;;5123339;27;20221;-47
2021/01/09 16:52:06;;;;;;;1999.90;999.90;;;-0.90;99.90;;;;;;5124193;27;20240;-47
2021/01/09 16:54:32;;;;;;;1999.90;999.90;;;-1.00;99.90;;;;;;5116267;28;20622;-47
2021/01/09 16:56:57;;;;;;;1999.90;999.90;;;-1.00;99.90;;;;;;5117365;28;20245;-47
2021/01/09 16:59:23;;;;;;;1999.90;999.90;;;-1.00;99.90;;;;;;5115046;28;20219;-47
2021/01/09 17:01:49;;;;;;;1999.90;999.90;;;-1.00;99.90;;;;;;5112820;28;20236;-48
2021/01/09 17:04:14;;;;;;;1999.90;999.90;;;-1.00;99.90;;;;;;5118877;28;20207;-47
2021/01/09 17:06:47;;;;;;;1999.90;999.90;;;-1.00;99.90;;;;;;5109839;28;20207;-47
2021/01/09 17:09:14;;;;;;;1999.90;999.90;;;-1.00;99.90;;;;;;5108525;28;20203;-47
2021/01/09 17:11:41;;;;;;;1999.90;999.90;;;-0.90;99.90;;;;;;5108177;28;20853;-47
2021/01/09 17:14:08;;;;;;;1999.90;999.90;;;-0.90;99.90;;;;;;5109671;28;20506;-47
2021/01/09 17:16:37;;;;;;;1999.90;999.90;;;-0.90;99.90;;;;;;5106122;28;20427;-47
2021/01/09 17:19:04;;;;;;;1999.90;999.90;;;-0.90;99.90;;;;;;5107092;28;20435;-47
2021/01/09 17:21:43;;;;;;;1999.90;999.90;;;-0.90;99.90;;;;;;5107982;28;20442;-47
2021/01/09 17:24:11;;;;;;;1999.90;999.90;;;-0.90;99.90;;;;;;5109944;28;20534;-47
2021/01/09 17:26:41;;;;;;;1999.90;999.90;;;-1.00;99.90;;;;;;5106012;28;20581;-48
2021/01/09 17:29:08;;;;;;;1999.90;999.90;;;-1.00;99.90;;;;;;5099867;28;20961;-47
2021/01/09 17:31:51;;;;;;;1999.90;999.90;;;-0.90;99.90;;;;;;5087689;28;20803;-47
2021/01/09 17:34:18;;;;;;;1999.90;999.90;;;-0.90;99.90;;;;;;5101822;28;20446;-47
2021/01/09 17:36:51;;;;;;;1999.90;999.90;;;-1.00;99.90;;;;;;5097679;28;20419;-47
2021/01/09 17:39:17;;;;;;;1999.90;999.90;;;-1.00;99.90;;;;;;5105487;28;20512;-47
2021/01/09 17:41:43;;;;;;;1999.90;999.90;;;-0.90;99.90;;;;;;5106500;28;20465;-47
2021/01/09 17:44:11;;;;;;;1999.90;999.90;;;-0.90;99.90;;;;;;5107961;28;20579;-48
2021/01/09 17:46:38;;;;;;;1999.90;999.90;;;-0.80;99.90;;;;;;5107041;28;20568;-48
2021/01/09 17:49:04;;;;;;;1999.90;999.90;;;-0.80;99.90;;;;;;5108316;28;20420;-47
2021/01/09 17:51:32;;;;;;;1999.90;999.90;;;-0.80;99.90;;;;;;5107463;28;20438;-47
2021/01/09 17:53:58;;;;;;;1999.90;999.90;;;-0.80;99.90;;;;;;5101214;28;20555;-47
2021/01/09 17:56:24;;;;;;;1999.90;999.90;;;-0.70;99.90;;;;;;5107693;28;20437;-48
2021/01/09 17:58:50;;;;;;;1999.90;999.90;;;-0.80;99.90;;;;;;5109197;28;20660;-47
2021/01/09 18:01:16;;;;;;;1999.90;999.90;;;-0.80;99.90;;;;;;5104992;28;20427;-48
2021/01/09 18:03:41;;;;;;;1999.90;999.90;;;-0.80;99.90;;;;;;5100122;28;20467;-48
2021/01/09 18:06:07;;;;;;;1999.90;999.90;;;-0.90;99.90;;;;;;5096352;28;20424;-48
2021/01/09 18:08:33;;;;;;;1999.90;999.90;;;-0.90;99.90;;;;;;5108250;28;20184;-47
2021/01/09 18:11:00;;;;;;;1999.90;999.90;;;-0.80;99.90;;;;;;5103207;28;20193;-53
2021/01/09 18:13:28;;;;;;;1999.90;999.90;;;-0.80;99.90;;;;;;5103983;28;20825;-47
2021/01/09 18:15:54;;;;;;;1999.90;999.90;;;-0.80;99.90;;;;;;5102920;28;20492;-48
2021/01/09 18:18:20;;;;;;;1999.90;999.90;;;-0.80;99.90;;;;;;5106100;28;20433;-47
2021/01/09 18:20:46;;;;;;;1999.90;999.90;;;-0.90;99.90;;;;;;5102355;28;20196;-47
2021/01/09 18:23:12;;;;;;;1999.90;999.90;;;-0.80;99.90;;;;;;5103557;28;20473;-47
2021/01/09 18:25:39;;;;;;;1999.90;999.90;;;-0.80;99.90;;;;;;5103616;28;20465;-48
2021/01/09 18:28:09;;;;;;;1999.90;999.90;;;-0.80;99.90;;;;;;5102045;28;20473;-48
2021/01/09 18:30:37;;;;;;;1999.90;999.90;;;-0.80;99.90;;;;;;5099568;28;20432;-48
2021/01/09 18:33:04;;;;;;;1999.90;999.90;;;-0.80;99.90;;;;;;5101538;28;20487;-48
2021/01/09 18:35:30;;;;;;;1999.90;999.90;;;-0.90;99.90;;;;;;5100803;28;21289;-47
2021/01/09 18:37:57;;;;;;;1999.90;999.90;;;-0.90;99.90;;;;;;5102625;28;20438;-48
2021/01/09 18:40:24;;;;;;;1999.90;999.90;;;-0.90;99.90;;;;;;5102632;28;20491;-48
2021/01/09 18:42:50;;;;;;;1999.90;999.90;;;-0.90;99.90;;;;;;5107896;28;20465;-47
2021/01/09 18:45:16;;;;;;;1999.90;999.90;;;-1.00;99.90;;;;;;5107181;28;20446;-47
2021/01/09 18:47:41;;;;;;;1999.90;999.90;;;-1.00;99.90;;;;;;5103219;28;20491;-48
2021/01/09 18:50:08;;;;;;;1999.90;999.90;;;-1.00;99.90;;;;;;5102114;28;20184;-47
2021/01/09 18:52:34;;;;;;;1999.90;999.90;;;-1.10;99.90;;;;;;5099034;28;20249;-47
2021/01/09 18:55:01;;;;;;;1999.90;999.90;;;-1.10;99.90;;;;;;5102128;28;20484;-47
2021/01/09 18:57:27;;;;;;;1999.90;999.90;;;-1.00;99.90;;;;;;5103368;27;20441;-47
2021/01/09 18:59:53;;;;;;;1999.90;999.90;;;-1.00;99.90;;;;;;5100646;28;20433;-47
2021/01/09 19:02:19;;;;;;;1999.90;999.90;;;-1.00;99.90;;;;;;5100926;28;21354;-47
2021/01/09 19:04:45;;;;;;;1999.90;999.90;;;-1.00;99.90;;;;;;5101733;28;20515;-47
2021/01/09 19:07:10;;;;;;;1999.90;999.90;;;-1.00;99.90;;;;;;5101264;28;20242;-47
2021/01/09 19:09:36;;;;;;;1999.90;999.90;;;-1.00;99.90;;;;;;5102216;28;20561;-48
2021/01/09 19:12:01;;;;;;;1999.90;999.90;;;-0.90;99.90;;;;;;5101704;28;20220;-47
2021/01/09 19:14:27;;;;;;;1999.90;999.90;;;-1.00;99.90;;;;;;5101700;28;20239;-47
2021/01/09 19:16:55;;;;;;;1999.90;999.90;;;-1.00;99.90;;;;;;5103810;28;20263;-48
2021/01/09 19:19:20;;;;;;;1999.90;999.90;;;-1.00;99.90;;;;;;5102901;28;20661;-47
2021/01/09 19:21:46;;;;;;;1999.90;999.90;;;-1.00;99.90;;;;;;5102102;28;20552;-47
2021/01/09 19:24:12;;;;;;;1999.90;999.90;;;-1.00;99.90;;;;;;5102188;28;20208;-47
2021/01/09 19:26:37;;;;;;;1999.90;999.90;;;-0.90;99.90;;;;;;5103200;28;20194;-48
2021/01/09 19:29:04;;;;;;;1999.90;999.90;;;-1.00;99.90;;;;;;5101223;28;20200;-47
2021/01/09 19:31:29;;;;;;;1999.90;999.90;;;-0.90;99.90;;;;;;5101996;28;20181;-47
2021/01/09 19:33:55;;;;;;;1999.90;999.90;;;-1.00;99.90;;;;;;5102250;28;20594;-47
2021/01/09 19:36:21;;;;;;;1999.90;999.90;;;-1.00;99.90;;;;;;5101008;28;20185;-47
2021/01/09 19:38:47;;;;;;;1999.90;999.90;;;-0.90;99.90;;;;;;5103320;28;20186;-48
2021/01/09 19:41:13;;;;;;;1999.90;999.90;;;-0.90;99.90;;;;;;5103891;28;20181;-48
2021/01/09 19:43:39;;;;;;;1999.90;999.90;;;-0.80;99.90;;;;;;5102672;28;21207;-48
2021/01/09 19:46:05;;;;;;;1999.90;999.90;;;-0.80;99.90;;;;;;5103352;28;20488;-47
2021/01/09 19:48:31;;;;;;;1999.90;999.90;;;-0.80;99.90;;;;;;5102460;28;20434;-48
2021/01/09 19:50:58;;;;;;;1999.90;999.90;;;-0.80;99.90;;;;;;5104403;28;20466;-47
2021/01/09 19:53:27;;;;;;;1999.90;999.90;;;-0.80;99.90;;;;;;5104926;28;21007;-48
2021/01/09 19:55:53;;;;;;;1999.90;999.90;;;-0.90;99.90;;;;;;5105771;28;20434;-48
2021/01/09 19:58:19;;;;;;;1999.90;999.90;;;-0.80;99.90;;;;;;5103600;28;20439;-47
2021/01/09 20:00:45;;;;;;;1999.90;999.90;;;-0.70;99.90;;;;;;5081087;28;20294;-47
2021/01/09 20:03:11;;;;;;;1999.90;999.90;;;-0.70;99.90;;;;;;5108941;28;20555;-47
2021/01/09 20:05:37;;;;;;;1999.90;999.90;;;-0.80;99.90;;;;;;5103157;28;20561;-47
2021/01/09 20:08:03;;;;;;;1999.90;999.90;;;-0.90;99.90;;;;;;5101730;28;20226;-47
2021/01/09 20:10:29;;;;;;;1999.90;999.90;;;-0.90;99.90;;;;;;5100105;28;20503;-47
2021/01/09 20:12:54;;;;;;;1999.90;999.90;;;-0.90;99.90;;;;;;5099384;28;20433;-47
2021/01/09 20:15:20;;;;;;;1999.90;999.90;;;-0.90;99.90;;;;;;5099279;28;20868;-47
2021/01/09 20:17:46;;;;;;;1999.90;999.90;;;-0.90;99.90;;;;;;5100449;28;20281;-47
2021/01/09 20:20:14;;;;;;;1999.90;999.90;;;-0.90;99.90;;;;;;5099550;28;20193;-47
2021/01/09 20:22:40;;;;;;;1999.90;999.90;;;-0.90;99.90;;;;;;5098798;28;20475;-48
2021/01/09 20:25:07;;;;;;;1999.90;999.90;;;-1.00;99.90;;;;;;5100747;28;20458;-47
2021/01/09 20:27:34;;;;;;;1999.90;999.90;;;-1.00;99.90;;;;;;5100990;28;20199;-48
2021/01/09 20:29:59;;;;;;;1999.90;999.90;;;-1.00;99.90;;;;;;5104668;28;20430;-47
2021/01/09 20:32:25;;;;;;;1999.90;999.90;;;-0.90;99.90;;;;;;5104754;27;20489;-47
2021/01/09 20:34:51;;;;;;;1999.90;999.90;;;-0.80;99.90;;;;;;5102225;28;20213;-48
2021/01/09 20:37:17;;;;;;;1999.90;999.90;;;-0.80;99.90;;;;;;5106761;28;20185;-48
2021/01/09 20:39:43;;;;;;;1999.90;999.90;;;-0.90;99.90;;;;;;5102818;28;20193;-48
2021/01/09 20:42:09;;;;;;;1999.90;999.90;;;-0.80;99.90;;;;;;5102458;28;20220;-48
2021/01/09 20:44:36;;;;;;;1999.90;999.90;;;-0.80;99.90;;;;;;5101375;28;20511;-47
2021/01/09 20:47:02;;;;;;;1999.90;999.90;;;-0.90;99.90;;;;;;5101604;28;20521;-48
2021/01/09 20:49:28;;;;;;;1999.90;999.90;;;-0.80;99.90;;;;;;5104121;27;20438;-48
2021/01/09 20:51:55;;;;;;;1999.90;999.90;;;-0.90;99.90;;;;;;5102150;28;21281;-47
2021/01/09 20:54:21;;;;;;;1999.90;999.90;;;-0.80;99.90;;;;;;5103404;28;20531;-48
2021/01/09 20:56:48;;;;;;;1999.90;999.90;;;-0.80;99.90;;;;;;5102722;28;20450;-47
2021/01/09 20:59:14;;;;;;;1999.90;999.90;;;-0.80;99.90;;;;;;5101967;28;20534;-48
2021/01/09 21:01:39;;;;;;;1999.90;999.90;;;-0.80;99.90;;;;;;5108886;28;21299;-47
2021/01/09 21:04:05;;;;;;;1999.90;999.90;;;-0.80;99.90;;;;;;5108514;28;20563;-48
2021/01/09 21:06:31;;;;;;;1999.90;999.90;;;-0.80;99.90;;;;;;5109029;28;20196;-47
2021/01/09 21:08:56;;;;;;;1999.90;999.90;;;-0.80;99.90;;;;;;5104317;28;20190;-49
2021/01/09 21:11:22;;;;;;;1999.90;999.90;;;-0.80;99.90;;;;;;5102287;28;20184;-48
2021/01/09 21:13:48;;;;;;;1999.90;999.90;;;-0.90;99.90;;;;;;5106615;27;20195;-47
2021/01/09 21:16:14;;;;;;;1999.90;999.90;;;-0.80;99.90;;;;;;5104770;28;20189;-48
2021/01/09 21:18:40;;;;;;;1999.90;999.90;;;-0.80;99.90;;;;;;5104422;28;20223;-48
2021/01/09 21:21:15;;;;;;;1999.90;999.90;;;-0.80;99.90;;;;;;5106914;28;20224;-47
2021/01/09 21:23:41;;;;;;;1999.90;999.90;;;-0.80;99.90;;;;;;5103809;28;20867;-47
2021/01/09 21:26:08;;;;;;;1999.90;999.90;;;-0.80;99.90;;;;;;5107110;28;20454;-48
2021/01/09 21:28:34;;;;;;;1999.90;999.90;;;-0.80;99.90;;;;;;5101508;28;20414;-47
2021/01/09 21:31:02;;;;;;;1999.90;999.90;;;-0.70;99.90;;;;;;5101354;28;21170;-47
2021/01/09 21:33:28;;;;;;;1999.90;999.90;;;-0.70;99.90;;;;;;5105405;28;20502;-47
2021/01/09 21:35:53;;;;;;;1999.90;999.90;;;-0.70;99.90;;;;;;5103003;28;20535;-47
2021/01/09 21:38:19;;;;;;;1999.90;999.90;;;-0.60;99.90;;;;;;5101362;28;20430;-47
2021/01/09 21:40:45;;;;;;;1999.90;999.90;;;-0.70;99.90;;;;;;5103872;28;20740;-47
2021/01/09 21:43:11;;;;;;;1999.90;999.90;;;-0.80;99.90;;;;;;5099828;28;21087;-47
2021/01/09 21:45:38;;;;;;;1999.90;999.90;;;-0.90;99.90;;;;;;5102161;28;20482;-47
2021/01/09 21:48:04;;;;;;;1999.90;999.90;;;-0.90;99.90;;;;;;5102930;28;20180;-47
2021/01/09 21:50:31;;;;;;;1999.90;999.90;;;-0.80;99.90;;;;;;5102239;28;20577;-47
2021/01/09 21:53:06;;;;;;;1999.90;999.90;;;-0.70;99.90;;;;;;5105270;28;20831;-47
2021/01/09 21:55:32;;;;;;;1999.90;999.90;;;-0.70;99.90;;;;;;5103750;28;20845;-47
2021/01/09 21:57:58;;;;;;;1999.90;999.90;;;-0.70;99.90;;;;;;5102289;28;20416;-47
2021/01/09 22:00:31;;;;;;;1999.90;999.90;;;-0.80;99.90;;;;;;5102971;28;20425;-47
2021/01/09 22:02:57;;;;;;;1999.90;999.90;;;-0.90;99.90;;;;;;5099501;28;20238;-46
2021/01/09 22:05:24;;;;;;;1999.90;999.90;;;-1.00;99.90;;;;;;5100505;28;20584;-46
2021/01/09 22:07:49;;;;;;;1999.90;999.90;;;-0.90;99.90;;;;;;5103323;28;20535;-47
2021/01/09 22:10:16;;;;;;;1999.90;999.90;;;-0.90;99.90;;;;;;5104317;28;20635;-47
2021/01/09 22:12:46;;;;;;;1999.90;999.90;;;-0.90;99.90;;;;;;5101564;28;20654;-46
2021/01/09 22:15:12;;;;;;;1999.90;999.90;;;-1.00;99.90;;;;;;5103187;28;20441;-46
2021/01/09 22:17:40;;;;;;;1999.90;999.90;;;-0.90;99.90;;;;;;5103169;28;20423;-53
2021/01/09 22:20:08;;;;;;;1999.90;999.90;;;-0.90;99.90;;;;;;5104339;28;20931;-47
2021/01/09 22:22:33;;;;;;;1999.90;999.90;;;-0.80;99.90;;;;;;5103607;27;20523;-47
2021/01/09 22:25:00;;;;;;;1999.90;999.90;;;-0.80;99.90;;;;;;5102868;28;20965;-47
2021/01/09 22:27:25;;;;;;;1999.90;999.90;;;-0.80;99.90;;;;;;5103501;28;20812;-46
2021/01/09 22:29:51;;;;;;;1999.90;999.90;;;-0.80;99.90;;;;;;5104089;28;20537;-47
2021/01/09 22:32:17;;;;;;;1999.90;999.90;;;-0.80;99.90;;;;;;5103820;28;20195;-47
2021/01/09 22:34:42;;;;;;;1999.90;999.90;;;-0.80;99.90;;;;;;5098933;28;20225;-48
2021/01/09 22:37:08;;;;;;;1999.90;999.90;;;-0.80;99.90;;;;;;5102195;28;20181;-47
2021/01/09 22:39:34;;;;;;;1999.90;999.90;;;-0.80;99.90;;;;;;5104285;28;20182;-46
2021/01/09 22:41:59;;;;;;;1999.90;999.90;;;-0.70;99.90;;;;;;5100552;28;20305;-47
2021/01/09 22:44:25;;;;;;;1999.90;999.90;;;-0.70;99.90;;;;;;5108009;28;20707;-47
2021/01/09 22:46:55;;;;;;;1999.90;999.90;;;-0.60;99.90;;;;;;5107256;28;20181;-49
2021/01/09 22:49:21;;;;;;;1999.90;999.90;;;-0.60;99.90;;;;;;5108121;28;20264;-47
2021/01/09 22:51:52;;;;;;;1999.90;999.90;;;-0.70;99.90;;;;;;5107384;28;20514;-47
2021/01/09 22:54:18;;;;;;;1999.90;999.90;;;-0.80;99.90;;;;;;5106115;28;20463;-47
2021/01/09 22:56:52;;;;;;;1999.90;999.90;;;-0.80;99.90;;;;;;5107884;28;20411;-47
2021/01/09 22:59:19;;;;;;;1999.90;999.90;;;-0.80;99.90;;;;;;5102847;28;20188;-46
2021/01/09 23:01:48;;;;;;;1999.90;999.90;;;-0.80;99.90;;;;;;5104490;28;20524;-47
2021/01/09 23:04:15;;;;;;;1999.90;999.90;;;-0.80;99.90;;;;;;5104874;28;20449;-47
2021/01/09 23:06:41;;;;;;;1999.90;999.90;;;-0.70;99.90;;;;;;5101273;28;20451;-47
2021/01/09 23:09:07;;;;;;;1999.90;999.90;;;-0.80;99.90;;;;;;5102402;28;20462;-47
2021/01/09 23:11:34;;;;;;;1999.90;999.90;;;-0.70;99.90;;;;;;5101236;28;20464;-47
2021/01/09 23:14:00;;;;;;;1999.90;999.90;;;-0.80;99.90;;;;;;5098449;28;20470;-47
2021/01/09 23:16:26;;;;;;;1999.90;999.90;;;-0.90;99.90;;;;;;5102487;28;20455;-47
2021/01/09 23:18:53;;;;;;;1999.90;999.90;;;-0.90;99.90;;;;;;5102402;28;20193;-47
2021/01/09 23:21:18;;;;;;;1999.90;999.90;;;-0.90;99.90;;;;;;5102679;28;20441;-47
2021/01/09 23:23:45;;;;;;;1999.90;999.90;;;-1.00;99.90;;;;;;5107735;28;20909;-48
2021/01/09 23:26:11;;;;;;;1999.90;999.90;;;-0.80;99.90;;;;;;5107334;28;20193;-47
2021/01/09 23:28:37;;;;;;;1999.90;999.90;;;-0.80;99.90;;;;;;5108370;28;20523;-47
2021/01/09 23:31:04;;;;;;;1999.90;999.90;;;-0.80;99.90;;;;;;5105912;27;20462;-46
2021/01/09 23:33:30;;;;;;;1999.90;999.90;;;-0.80;99.90;;;;;;5103721;28;20444;-47
2021/01/09 23:35:56;;;;;;;1999.90;999.90;;;-0.70;99.90;;;;;;5107648;28;20451;-47
2021/01/09 23:38:22;;;;;;;1999.90;999.90;;;-0.70;99.90;;;;;;5108024;28;20519;-47
2021/01/09 23:40:48;;;;;;;1999.90;999.90;;;-0.60;99.90;;;;;;5102102;28;20188;-47
2021/01/09 23:43:19;;;;;;;1999.90;999.90;;;-0.80;99.90;;;;;;5102346;28;20665;-47
2021/01/09 23:45:45;;;;;;;1999.90;999.90;;;-0.80;99.90;;;;;;5102002;28;20447;-47
2021/01/09 23:48:13;;;;;;;1999.90;999.90;;;-0.90;99.90;;;;;;5108800;28;20422;-47
2021/01/09 23:50:39;;;;;;;1999.90;999.90;;;-0.90;99.90;;;;;;5106293;28;20444;-46
2021/01/09 23:53:06;;;;;;;1999.90;999.90;;;-1.00;99.90;;;;;;5106310;28;20941;-47
2021/01/09 23:55:32;;;;;;;1999.90;999.90;;;-1.00;99.90;;;;;;5099838;28;20462;-47
2021/01/09 23:57:57;;;;;;;1999.90;999.90;;;-0.90;99.90;;;;;;5102168;28;20446;-48
